createdAt,value
2018-12-14T00:00:02.423Z,99.90
2018-12-14T00:02:34.911Z,99.90
2018-12-14T00:05:07.592Z,99.90
2018-12-14T00:07:44.195Z,99.90
2018-12-14T00:10:16.834Z,99.90
2018-12-14T00:12:50.206Z,99.90
2018-12-14T00:15:22.747Z,99.90
2018-12-14T00:17:55.283Z,99.90
2018-12-14T00:20:28.467Z,99.90
2018-12-14T00:23:01.526Z,99.90
2018-12-14T00:25:34.007Z,99.90
2018-12-14T00:28:06.379Z,99.90
2018-12-14T00:30:39.098Z,99.90
2018-12-14T00:33:11.663Z,99.90
2018-12-14T00:35:44.393Z,99.90
2018-12-14T00:38:16.952Z,99.90
2018-12-14T00:40:49.633Z,99.90
2018-12-14T00:43:22.167Z,99.90
2018-12-14T00:45:54.698Z,99.90
2018-12-14T00:48:27.389Z,99.90
2018-12-14T00:51:00.940Z,99.90
2018-12-14T00:53:33.457Z,99.90
2018-12-14T00:56:06.008Z,99.90
2018-12-14T00:58:38.693Z,99.90
2018-12-14T01:01:11.448Z,99.90
2018-12-14T01:03:43.953Z,99.90
2018-12-14T01:06:16.585Z,99.90
2018-12-14T01:08:49.242Z,99.90
2018-12-14T01:11:22.802Z,99.90
2018-12-14T01:13:58.017Z,99.90
2018-12-14T01:16:30.435Z,99.90
2018-12-14T01:19:03.091Z,99.90
2018-12-14T01:21:35.726Z,99.90
2018-12-14T01:24:08.337Z,99.90
2018-12-14T01:26:40.903Z,99.90
2018-12-14T01:29:13.462Z,99.90
2018-12-14T01:31:45.992Z,99.90
2018-12-14T01:34:18.583Z,99.90
2018-12-14T01:36:51.267Z,99.90
2018-12-14T01:39:23.923Z,99.90
2018-12-14T01:41:56.397Z,99.90
2018-12-14T01:44:29.027Z,99.90
2018-12-14T01:47:01.634Z,99.90
2018-12-14T01:49:34.185Z,99.90
2018-12-14T01:52:07.094Z,99.90
2018-12-14T01:54:39.720Z,99.90
2018-12-14T01:57:12.156Z,99.90
2018-12-14T01:59:44.554Z,99.90
2018-12-14T02:03:20.860Z,99.90
2018-12-14T02:05:53.683Z,99.90
2018-12-14T02:08:26.608Z,99.90
2018-12-14T02:10:59.423Z,99.90
2018-12-14T02:13:31.977Z,99.90
2018-12-14T02:16:04.531Z,99.90
2018-12-14T02:18:37.251Z,99.90
2018-12-14T02:21:09.937Z,99.90
2018-12-14T02:23:42.498Z,99.90
2018-12-14T02:26:15.146Z,99.90
2018-12-14T02:28:47.741Z,99.90
2018-12-14T02:31:20.337Z,99.90
2018-12-14T02:33:53.068Z,99.90
2018-12-14T02:36:25.971Z,99.90
2018-12-14T02:38:58.586Z,99.90
2018-12-14T02:41:30.937Z,99.90
2018-12-14T02:44:03.945Z,99.90
2018-12-14T02:46:36.517Z,99.90
2018-12-14T02:49:09.301Z,99.90
2018-12-14T02:51:41.814Z,99.90
2018-12-14T02:54:14.387Z,99.90
2018-12-14T02:56:46.903Z,99.90
2018-12-14T02:59:19.391Z,99.90
2018-12-14T03:01:51.825Z,99.90
2018-12-14T03:04:24.449Z,99.90
2018-12-14T03:06:56.941Z,99.90
2018-12-14T03:09:29.670Z,99.90
2018-12-14T03:12:02.120Z,99.90
2018-12-14T03:14:34.881Z,99.90
2018-12-14T03:17:07.501Z,99.90
2018-12-14T03:19:40.085Z,99.90
2018-12-14T03:22:14.026Z,99.90
2018-12-14T03:24:46.651Z,99.90
2018-12-14T03:27:19.140Z,99.90
2018-12-14T03:29:51.579Z,99.90
2018-12-14T03:32:23.983Z,99.90
2018-12-14T03:34:56.507Z,99.90
2018-12-14T03:37:29.035Z,99.90
2018-12-14T03:40:01.689Z,99.90
2018-12-14T03:42:34.811Z,99.90
2018-12-14T03:45:07.648Z,99.90
2018-12-14T03:47:40.294Z,99.90
2018-12-14T03:50:12.696Z,99.90
2018-12-14T03:52:45.276Z,99.90
2018-12-14T03:55:18.388Z,99.90
2018-12-14T03:57:51.637Z,99.90
2018-12-14T04:00:24.361Z,99.90
2018-12-14T04:02:58.319Z,99.90
2018-12-14T04:05:31.313Z,99.90
2018-12-14T04:08:03.899Z,99.90
2018-12-14T04:10:36.423Z,99.90
2018-12-14T04:13:08.840Z,99.90
2018-12-14T04:18:45.130Z,99.90
2018-12-14T04:21:18.552Z,99.90
2018-12-14T04:23:51.267Z,99.90
2018-12-14T04:26:23.819Z,99.90
2018-12-14T04:28:56.476Z,99.90
2018-12-14T04:31:28.866Z,99.90
2018-12-14T04:34:01.161Z,99.90
2018-12-14T04:36:33.529Z,99.90
2018-12-14T04:39:06.650Z,99.90
2018-12-14T04:41:39.169Z,99.90
2018-12-14T04:44:11.461Z,99.90
2018-12-14T04:46:43.817Z,99.90
2018-12-14T04:49:16.236Z,99.90
2018-12-14T04:51:48.620Z,99.90
2018-12-14T04:54:20.905Z,99.90
2018-12-14T04:56:53.390Z,99.90
2018-12-14T04:59:25.688Z,99.90
2018-12-14T05:01:58.173Z,99.90
2018-12-14T05:04:30.615Z,99.90
2018-12-14T05:07:03.272Z,99.90
2018-12-14T05:09:35.569Z,99.90
2018-12-14T05:12:08.056Z,99.90
2018-12-14T05:14:40.664Z,99.90
2018-12-14T05:17:13.010Z,99.90
2018-12-14T05:19:45.360Z,99.90
2018-12-14T05:22:17.801Z,99.90
2018-12-14T05:24:50.278Z,99.90
2018-12-14T05:27:22.797Z,99.90
2018-12-14T05:29:55.666Z,99.90
2018-12-14T05:32:27.963Z,99.90
2018-12-14T05:35:00.482Z,99.90
2018-12-14T05:37:32.798Z,99.90
2018-12-14T05:40:05.284Z,99.90
2018-12-14T05:42:37.611Z,99.90
2018-12-14T05:45:10.030Z,99.90
2018-12-14T05:47:43.201Z,99.90
2018-12-14T05:50:15.548Z,99.90
2018-12-14T05:52:47.857Z,99.90
2018-12-14T05:55:20.169Z,99.90
2018-12-14T05:57:52.495Z,99.90
2018-12-14T06:00:24.805Z,99.90
2018-12-14T06:02:57.120Z,99.90
2018-12-14T06:05:29.448Z,99.90
2018-12-14T06:08:01.881Z,99.90
2018-12-14T06:10:34.333Z,99.90
2018-12-14T06:13:09.176Z,99.90
2018-12-14T06:15:41.121Z,99.90
2018-12-14T06:18:13.469Z,99.90
2018-12-14T06:20:46.541Z,99.90
2018-12-14T06:23:19.018Z,99.90
2018-12-14T06:25:51.569Z,99.90
2018-12-14T06:28:24.162Z,99.90
2018-12-14T06:30:56.557Z,99.90
2018-12-14T06:33:29.112Z,99.90
2018-12-14T06:36:02.005Z,99.90
2018-12-14T06:38:34.676Z,99.90
2018-12-14T06:41:06.987Z,99.90
2018-12-14T06:43:39.499Z,99.90
2018-12-14T06:46:11.945Z,99.90
2018-12-14T06:48:44.475Z,99.90
2018-12-14T06:51:16.900Z,99.90
2018-12-14T06:53:49.256Z,99.90
2018-12-14T06:56:21.588Z,99.90
2018-12-14T06:58:54.166Z,99.90
2018-12-14T07:01:26.469Z,99.90
2018-12-14T07:03:58.851Z,99.90
2018-12-14T07:06:31.205Z,99.90
2018-12-14T07:09:05.135Z,99.90
2018-12-14T07:11:37.677Z,99.90
2018-12-14T07:14:10.049Z,99.90
2018-12-14T07:16:42.703Z,99.90
2018-12-14T07:19:15.032Z,99.90
2018-12-14T07:21:47.427Z,99.90
2018-12-14T07:26:52.492Z,99.90
2018-12-14T07:29:24.861Z,99.90
2018-12-14T07:31:57.239Z,99.90
2018-12-14T07:34:29.532Z,99.90
2018-12-14T07:37:01.910Z,99.90
2018-12-14T07:39:34.272Z,99.90
2018-12-14T07:42:06.756Z,99.90
2018-12-14T07:44:39.933Z,99.90
2018-12-14T07:47:12.657Z,99.90
2018-12-14T07:49:45.086Z,99.90
2018-12-14T07:52:17.465Z,99.90
2018-12-14T07:54:49.813Z,99.90
2018-12-14T07:57:22.187Z,99.90
2018-12-14T07:59:54.620Z,99.90
2018-12-14T08:02:26.952Z,99.90
2018-12-14T08:04:59.291Z,99.90
2018-12-14T08:07:31.790Z,99.90
2018-12-14T08:10:04.906Z,99.90
2018-12-14T08:12:37.334Z,99.90
2018-12-14T08:15:11.469Z,99.90
2018-12-14T08:17:44.035Z,99.90
2018-12-14T08:20:17.219Z,99.90
2018-12-14T08:22:49.869Z,99.90
2018-12-14T08:25:22.461Z,99.90
2018-12-14T08:27:54.958Z,99.90
2018-12-14T08:30:27.437Z,99.90
2018-12-14T08:32:59.737Z,99.90
2018-12-14T08:35:32.123Z,99.90
2018-12-14T08:38:04.518Z,99.90
2018-12-14T08:40:36.960Z,99.90
2018-12-14T08:43:09.316Z,99.90
2018-12-14T08:45:41.797Z,99.90
2018-12-14T08:48:14.370Z,99.90
2018-12-14T08:50:46.915Z,99.90
2018-12-14T08:53:19.606Z,99.90
2018-12-14T08:55:52.104Z,99.90
2018-12-14T08:58:24.548Z,99.90
2018-12-14T09:00:56.882Z,99.90
2018-12-14T09:03:29.600Z,99.90
2018-12-14T09:06:02.712Z,99.90
2018-12-14T09:08:35.185Z,99.90
2018-12-14T09:11:07.571Z,99.90
2018-12-14T09:13:39.962Z,99.90
2018-12-14T09:16:12.438Z,99.90
2018-12-14T09:18:45.297Z,99.90
2018-12-14T09:21:17.723Z,99.90
2018-12-14T09:23:50.090Z,99.90
2018-12-14T09:26:22.637Z,99.90
2018-12-14T09:28:55.309Z,99.90
2018-12-14T09:31:28.216Z,99.90
2018-12-14T09:34:00.593Z,99.90
2018-12-14T09:36:32.907Z,99.90
2018-12-14T09:39:06.209Z,99.90
2018-12-14T09:41:38.530Z,99.90
2018-12-14T09:44:10.913Z,99.90
2018-12-14T09:46:43.274Z,99.90
2018-12-14T09:49:16.637Z,99.90
2018-12-14T09:51:49.175Z,99.90
2018-12-14T09:54:21.630Z,99.90
2018-12-14T09:56:53.981Z,99.90
2018-12-14T09:59:26.380Z,99.90
2018-12-14T10:01:58.724Z,99.90
2018-12-14T10:04:31.124Z,99.90
2018-12-14T10:07:03.674Z,99.90
2018-12-14T10:09:36.175Z,99.90
2018-12-14T10:12:08.704Z,99.90
2018-12-14T10:14:41.779Z,99.90
2018-12-14T10:17:14.214Z,99.90
2018-12-14T10:19:46.665Z,99.90
2018-12-14T10:22:19.116Z,99.90
2018-12-14T10:24:51.768Z,99.90
2018-12-14T10:27:24.077Z,99.90
2018-12-14T10:29:56.607Z,99.90
2018-12-14T10:32:28.999Z,99.90
2018-12-14T10:35:01.385Z,99.90
2018-12-14T10:37:33.760Z,99.90
2018-12-14T10:40:08.156Z,99.90
2018-12-14T10:42:40.469Z,99.90
2018-12-14T10:45:12.843Z,99.90
2018-12-14T10:47:45.342Z,99.90
2018-12-14T10:50:17.700Z,99.90
2018-12-14T10:52:50.109Z,99.90
2018-12-14T10:55:22.573Z,99.90
2018-12-14T10:57:55.149Z,99.90
2018-12-14T11:00:33.268Z,99.90
2018-12-14T11:03:05.697Z,99.90
2018-12-14T11:05:38.069Z,99.90
2018-12-14T11:08:10.405Z,99.90
2018-12-14T11:10:42.788Z,99.90
2018-12-14T11:13:15.333Z,99.90
2018-12-14T11:15:47.803Z,99.90
2018-12-14T11:18:20.097Z,99.90
2018-12-14T11:20:52.508Z,99.90
2018-12-14T11:23:24.887Z,99.90
2018-12-14T11:25:57.365Z,99.90
2018-12-14T11:28:29.739Z,99.90
2018-12-14T11:31:02.076Z,99.90
2018-12-14T11:33:34.634Z,99.90
2018-12-14T11:36:07.130Z,99.90
2018-12-14T11:38:39.441Z,99.90
2018-12-14T11:41:18.291Z,99.90
2018-12-14T11:43:46.175Z,99.90
2018-12-14T11:46:18.652Z,99.90
2018-12-14T11:48:50.990Z,99.90
2018-12-14T11:51:25.125Z,99.90
2018-12-14T11:55:00.537Z,99.90
2018-12-14T11:57:33.116Z,99.90
2018-12-14T12:00:11.363Z,99.90
2018-12-14T12:02:43.796Z,99.90
2018-12-14T12:05:16.100Z,99.90
2018-12-14T12:07:48.891Z,99.90
2018-12-14T12:10:21.255Z,99.90
2018-12-14T12:12:53.772Z,99.90
2018-12-14T12:15:26.168Z,99.90
2018-12-14T12:17:58.561Z,99.90
2018-12-14T12:20:30.904Z,99.90
2018-12-14T12:23:03.379Z,99.90
2018-12-14T12:25:35.720Z,99.90
2018-12-14T12:28:08.179Z,99.90
2018-12-14T12:30:40.658Z,99.90
2018-12-14T12:33:13.024Z,99.90
2018-12-14T12:35:45.588Z,99.90
2018-12-14T12:38:17.901Z,99.90
2018-12-14T12:40:50.304Z,99.90
2018-12-14T12:43:22.689Z,99.90
2018-12-14T12:45:55.038Z,99.90
2018-12-14T12:48:27.484Z,99.90
2018-12-14T12:51:03.093Z,99.90
2018-12-14T12:53:34.425Z,99.90
2018-12-14T12:56:07.216Z,99.90
2018-12-14T12:58:39.683Z,99.90
2018-12-14T13:01:12.100Z,99.80
2018-12-14T13:03:45.111Z,99.40
2018-12-14T13:06:18.438Z,99.00
2018-12-14T13:08:50.942Z,99.10
2018-12-14T13:11:23.266Z,98.80
2018-12-14T13:13:55.690Z,98.50
2018-12-14T13:16:28.236Z,99.20
2018-12-14T13:19:00.644Z,99.50
2018-12-14T13:21:32.966Z,99.80
2018-12-14T13:24:05.471Z,99.90
2018-12-14T13:26:37.809Z,99.90
2018-12-14T13:29:10.314Z,99.90
2018-12-14T13:31:42.679Z,99.90
2018-12-14T13:34:15.248Z,99.90
2018-12-14T13:36:47.989Z,99.90
2018-12-14T13:39:20.606Z,99.90
2018-12-14T13:41:52.914Z,99.90
2018-12-14T13:44:26.332Z,99.90
2018-12-14T13:46:58.684Z,99.90
2018-12-14T13:49:32.639Z,99.90
2018-12-14T13:52:05.090Z,99.90
2018-12-14T13:54:37.722Z,99.90
2018-12-14T13:57:10.123Z,99.90
2018-12-14T13:59:42.568Z,99.90
2018-12-14T14:02:14.900Z,99.90
2018-12-14T14:04:47.254Z,99.90
2018-12-14T14:07:19.641Z,99.90
2018-12-14T14:09:52.144Z,99.90
2018-12-14T14:12:30.651Z,99.90
2018-12-14T14:14:59.387Z,99.90
2018-12-14T14:17:32.345Z,99.90
2018-12-14T14:20:04.858Z,99.90
2018-12-14T14:22:37.206Z,99.90
2018-12-14T14:25:09.870Z,99.90
2018-12-14T14:27:42.221Z,99.90
2018-12-14T14:30:14.799Z,99.90
2018-12-14T14:32:47.319Z,99.90
2018-12-14T14:35:19.682Z,99.90
2018-12-14T14:37:57.367Z,99.90
2018-12-14T14:40:26.512Z,99.90
2018-12-14T14:42:58.965Z,99.90
2018-12-14T14:45:31.605Z,99.90
2018-12-14T14:48:03.919Z,99.90
2018-12-14T14:50:36.442Z,99.90
2018-12-14T14:53:08.756Z,99.90
2018-12-14T14:55:41.583Z,99.90
2018-12-14T14:58:14.085Z,99.90
2018-12-14T15:00:46.657Z,99.90
2018-12-14T15:03:19.136Z,99.90
2018-12-14T15:05:52.597Z,99.90
2018-12-14T15:08:24.931Z,99.90
2018-12-14T15:10:57.441Z,99.90
2018-12-14T15:13:29.750Z,99.90
2018-12-14T15:16:02.295Z,99.90
2018-12-14T15:18:35.010Z,99.90
2018-12-14T15:21:07.612Z,99.90
2018-12-14T15:23:39.923Z,99.90
2018-12-14T15:26:12.498Z,99.90
2018-12-14T15:28:44.833Z,99.90
2018-12-14T15:31:17.518Z,99.90
2018-12-14T15:33:49.818Z,99.90
2018-12-14T15:36:22.170Z,99.90
2018-12-14T15:38:54.777Z,99.90
2018-12-14T15:41:27.248Z,99.90
2018-12-14T15:43:59.585Z,99.90
2018-12-14T15:46:31.974Z,99.90
2018-12-14T15:49:04.301Z,99.90
2018-12-14T15:51:36.727Z,99.90
2018-12-14T15:54:09.032Z,99.90
2018-12-14T15:56:41.501Z,99.90
2018-12-14T15:59:13.851Z,99.90
2018-12-14T16:01:46.414Z,99.90
2018-12-14T16:04:18.778Z,99.90
2018-12-14T16:06:51.232Z,99.90
2018-12-14T16:09:23.940Z,99.90
2018-12-14T16:11:57.349Z,99.90
2018-12-14T16:14:34.353Z,99.90
2018-12-14T16:17:04.585Z,99.90
2018-12-14T16:19:37.182Z,99.90
2018-12-14T16:22:09.581Z,99.90
2018-12-14T16:24:41.951Z,99.90
2018-12-14T16:27:14.553Z,99.90
2018-12-14T16:29:46.984Z,99.90
2018-12-14T16:32:19.386Z,99.90
2018-12-14T16:34:51.825Z,99.90
2018-12-14T16:37:24.240Z,99.90
2018-12-14T16:39:57.336Z,99.90
2018-12-14T16:42:29.707Z,99.90
2018-12-14T16:45:02.185Z,99.90
2018-12-14T16:47:34.604Z,99.90
2018-12-14T16:50:07.080Z,99.90
2018-12-14T16:52:39.504Z,99.90
2018-12-14T16:55:12.026Z,99.90
2018-12-14T16:57:44.507Z,99.90
2018-12-14T17:00:17.154Z,99.90
2018-12-14T17:02:49.608Z,99.90
2018-12-14T17:05:21.944Z,99.90
2018-12-14T17:07:54.315Z,99.90
2018-12-14T17:10:26.718Z,99.90
2018-12-14T17:12:59.073Z,99.90
2018-12-14T17:15:33.418Z,99.90
2018-12-14T17:18:05.816Z,99.90
2018-12-14T17:20:38.565Z,99.90
2018-12-14T17:23:10.988Z,99.90
2018-12-14T17:25:43.416Z,99.90
2018-12-14T17:28:15.865Z,99.90
2018-12-14T17:30:48.293Z,99.90
2018-12-14T17:33:20.607Z,99.90
2018-12-14T17:35:52.957Z,99.90
2018-12-14T17:38:25.399Z,99.90
2018-12-14T17:40:58.011Z,99.90
2018-12-14T17:43:30.436Z,99.90
2018-12-14T17:46:03.015Z,99.90
2018-12-14T17:48:35.457Z,99.90
2018-12-14T17:51:09.946Z,99.90
2018-12-14T17:53:42.308Z,99.90
2018-12-14T17:56:14.737Z,99.90
2018-12-14T17:58:47.318Z,99.90
2018-12-14T18:01:19.908Z,99.90
2018-12-14T18:03:52.331Z,99.90
2018-12-14T18:06:24.707Z,99.90
2018-12-14T18:08:57.144Z,99.90
2018-12-14T18:11:29.552Z,99.90
2018-12-14T18:14:02.020Z,99.90
2018-12-14T18:16:34.714Z,99.90
2018-12-14T18:19:07.275Z,99.90
2018-12-14T18:21:39.650Z,99.90
2018-12-14T18:24:11.973Z,99.90
2018-12-14T18:26:44.337Z,99.90
2018-12-14T18:29:16.668Z,99.90
2018-12-14T18:31:49.008Z,99.90
2018-12-14T18:34:21.453Z,99.90
2018-12-14T18:36:53.817Z,99.90
2018-12-14T18:39:26.135Z,99.90
2018-12-14T18:41:58.524Z,99.90
2018-12-14T18:44:30.841Z,99.90
2018-12-14T18:47:03.260Z,99.90
2018-12-14T18:49:35.575Z,99.90
2018-12-14T18:52:07.971Z,99.90
2018-12-14T18:54:40.331Z,99.90
2018-12-14T18:57:12.813Z,99.90
2018-12-14T18:59:45.167Z,99.90
2018-12-14T19:02:17.622Z,99.90
2018-12-14T19:04:50.129Z,99.90
2018-12-14T19:07:22.538Z,99.90
2018-12-14T19:09:54.928Z,99.90
2018-12-14T19:12:27.748Z,99.90
2018-12-14T19:15:00.364Z,99.90
2018-12-14T19:17:32.723Z,99.90
2018-12-14T19:20:05.733Z,99.90
2018-12-14T19:22:38.206Z,99.90
2018-12-14T19:25:10.542Z,99.90
2018-12-14T19:27:43.037Z,99.90
2018-12-14T19:30:15.487Z,99.90
2018-12-14T19:32:47.885Z,99.90
2018-12-14T19:35:20.353Z,99.90
2018-12-14T19:37:52.780Z,99.90
2018-12-14T19:40:25.136Z,99.90
2018-12-14T19:42:57.741Z,99.90
2018-12-14T19:45:30.514Z,99.90
2018-12-14T19:48:03.520Z,99.90
2018-12-14T19:50:35.844Z,99.90
2018-12-14T19:53:08.217Z,99.90
2018-12-14T19:55:40.534Z,99.90
2018-12-14T19:58:12.884Z,99.90
2018-12-14T20:00:45.188Z,99.90
2018-12-14T20:03:17.536Z,99.90
2018-12-14T20:05:49.932Z,99.90
2018-12-14T20:08:22.274Z,99.90
2018-12-14T20:10:54.688Z,99.90
2018-12-14T20:13:27.112Z,99.90
2018-12-14T20:15:59.500Z,99.90
2018-12-14T20:18:31.980Z,99.90
2018-12-14T20:21:04.332Z,99.90
2018-12-14T20:23:36.734Z,99.90
2018-12-14T20:26:09.099Z,99.90
2018-12-14T20:28:41.493Z,99.90
2018-12-14T20:31:13.874Z,99.90
2018-12-14T20:33:46.384Z,99.90
2018-12-14T20:36:18.702Z,99.90
2018-12-14T20:38:51.020Z,99.90
2018-12-14T20:41:23.384Z,99.90
2018-12-14T20:43:55.862Z,99.90
2018-12-14T20:46:28.332Z,99.90
2018-12-14T20:49:00.710Z,99.90
2018-12-14T20:51:33.071Z,99.90
2018-12-14T20:54:05.429Z,99.90
2018-12-14T20:56:37.844Z,99.90
2018-12-14T20:59:10.212Z,99.90
2018-12-14T21:01:42.605Z,99.90
2018-12-14T21:04:15.108Z,99.90
2018-12-14T21:06:47.610Z,99.90
2018-12-14T21:09:19.984Z,99.90
2018-12-14T21:11:52.433Z,99.90
2018-12-14T21:14:25.000Z,99.90
2018-12-14T21:16:57.345Z,99.90
2018-12-14T21:19:29.904Z,99.90
2018-12-14T21:22:02.284Z,99.90
2018-12-14T21:24:34.808Z,99.90
2018-12-14T21:27:07.445Z,99.90
2018-12-14T21:29:39.771Z,99.90
2018-12-14T21:32:12.143Z,99.90
2018-12-14T21:34:44.500Z,99.90
2018-12-14T21:37:16.888Z,99.90
2018-12-14T21:39:49.259Z,99.90
2018-12-14T21:42:21.679Z,99.90
2018-12-14T21:44:55.173Z,99.90
2018-12-14T21:47:27.694Z,99.90
2018-12-14T21:50:00.056Z,99.90
2018-12-14T21:52:32.640Z,99.90
2018-12-14T21:55:06.028Z,99.90
2018-12-14T21:57:39.106Z,99.90
2018-12-14T22:00:11.736Z,99.90
2018-12-14T22:02:44.069Z,99.90
2018-12-14T22:05:17.933Z,99.90
2018-12-14T22:07:50.253Z,99.90
2018-12-14T22:10:22.805Z,99.90
2018-12-14T22:12:55.392Z,99.90
2018-12-14T22:15:27.949Z,99.90
2018-12-14T22:18:00.322Z,99.90
2018-12-14T22:20:32.792Z,99.90
2018-12-14T22:23:06.067Z,99.90
2018-12-14T22:25:38.745Z,99.90
2018-12-14T22:28:11.233Z,99.90
2018-12-14T22:30:43.582Z,99.90
2018-12-14T22:33:15.996Z,99.90
2018-12-14T22:35:48.590Z,99.90
2018-12-14T22:38:21.031Z,99.90
2018-12-14T22:40:53.620Z,99.90
2018-12-14T22:43:26.008Z,99.90
2018-12-14T22:45:58.492Z,99.90
2018-12-14T22:48:30.953Z,99.90
2018-12-14T22:51:03.441Z,99.90
2018-12-14T22:53:35.765Z,99.90
2018-12-14T22:56:08.158Z,99.90
2018-12-14T22:58:40.689Z,99.90
2018-12-14T23:01:13.244Z,99.90
2018-12-14T23:03:45.559Z,99.90
2018-12-14T23:06:18.034Z,99.90
2018-12-14T23:08:50.351Z,99.90
2018-12-14T23:11:22.854Z,99.90
2018-12-14T23:13:55.267Z,99.90
2018-12-14T23:16:27.632Z,99.90
2018-12-14T23:18:59.965Z,99.90
2018-12-14T23:21:32.461Z,99.90
2018-12-14T23:24:04.779Z,99.90
2018-12-14T23:26:37.177Z,99.90
2018-12-14T23:29:09.489Z,99.90
2018-12-14T23:31:41.941Z,99.90
2018-12-14T23:34:14.259Z,99.90
2018-12-14T23:36:46.608Z,99.90
2018-12-14T23:39:18.925Z,99.90
2018-12-14T23:41:51.225Z,99.90
2018-12-14T23:44:23.653Z,99.90
2018-12-14T23:46:58.869Z,99.90
2018-12-14T23:49:30.471Z,99.90
2018-12-14T23:52:02.811Z,99.90
2018-12-14T23:54:35.133Z,99.90
2018-12-14T23:57:12.233Z,99.90
2018-12-14T23:59:41.881Z,99.90
